Time;durP1;ratioP1;P1;durP2;ratioP2;P2;SDS_P1;SDS_P2;PMS_P1;PMS_P2;Temp;Humidity;BMP_temperature;BMP_pressure;BME280_temperature;BME280_humidity;BME280_pressure;Samples;Min_cycle;Max_cycle;Signal;HPM_P1;HPM_P2
2022/11/02 00:00:23;;;;;;;15.95;14.25;;;11.90;99.90;;;;;;5115055;28;20229;-85
2022/11/02 00:02:51;;;;;;;17.77;16.05;;;11.90;99.90;;;;;;5115384;28;20212;-85
2022/11/02 00:05:23;;;;;;;18.48;15.98;;;11.90;99.90;;;;;;5115153;28;20211;-85
2022/11/02 00:07:52;;;;;;;15.57;14.10;;;11.90;99.90;;;;;;5115205;28;20211;-86
2022/11/02 00:10:22;;;;;;;15.40;13.77;;;11.90;99.90;;;;;;5115064;28;20230;-86
2022/11/02 00:12:50;;;;;;;15.85;14.27;;;11.80;99.90;;;;;;5115102;28;20224;-86
2022/11/02 00:15:21;;;;;;;15.73;14.20;;;11.80;99.90;;;;;;5114371;28;20230;-86
2022/11/02 00:17:51;;;;;;;16.02;14.52;;;11.80;99.90;;;;;;5114864;28;20207;-86
2022/11/02 00:20:21;;;;;;;17.48;15.60;;;11.80;99.90;;;;;;5114138;28;20230;-86
2022/11/02 00:22:53;;;;;;;15.95;14.32;;;11.80;99.90;;;;;;5115327;28;20207;-86
2022/11/02 00:25:23;;;;;;;17.25;15.57;;;11.80;99.90;;;;;;5115039;28;20214;-86
2022/11/02 00:27:52;;;;;;;17.70;16.00;;;11.80;99.90;;;;;;5114876;28;20219;-86
2022/11/02 00:30:22;;;;;;;19.17;14.70;;;11.80;99.90;;;;;;5114200;28;20247;-85
2022/11/02 00:32:50;;;;;;;27.08;16.10;;;11.80;99.90;;;;;;5114978;28;20227;-85
2022/11/02 00:35:19;;;;;;;16.25;14.38;;;11.80;99.90;;;;;;5114461;28;20203;-86
2022/11/02 00:37:49;;;;;;;19.75;15.90;;;11.80;99.90;;;;;;5114729;28;20208;-85
2022/11/02 00:40:18;;;;;;;16.75;15.05;;;11.80;99.90;;;;;;5114204;28;20234;-85
2022/11/02 00:42:46;;;;;;;15.70;14.10;;;11.80;99.90;;;;;;5114850;28;20211;-85
2022/11/02 00:45:14;;;;;;;15.90;14.30;;;11.90;99.90;;;;;;5114595;28;20204;-86
2022/11/02 00:47:44;;;;;;;16.40;14.43;;;11.90;99.90;;;;;;5114071;28;20208;-85
2022/11/02 00:50:12;;;;;;;15.32;13.77;;;11.90;99.90;;;;;;5113873;28;20235;-85
2022/11/02 00:52:41;;;;;;;14.57;13.25;;;11.90;99.90;;;;;;5114175;28;20203;-86
2022/11/02 00:55:10;;;;;;;20.98;15.77;;;11.90;99.90;;;;;;5114199;28;20294;-86
2022/11/02 00:57:40;;;;;;;15.23;13.73;;;11.90;99.90;;;;;;5114293;28;20199;-84
2022/11/02 01:00:10;;;;;;;16.27;14.65;;;11.90;99.90;;;;;;5113470;28;20232;-85
2022/11/02 01:02:39;;;;;;;15.18;13.07;;;11.90;99.90;;;;;;5114757;28;20211;-86
2022/11/02 01:05:10;;;;;;;15.35;13.85;;;11.90;99.90;;;;;;5114413;28;20246;-86
2022/11/02 01:07:39;;;;;;;16.83;15.07;;;11.90;99.90;;;;;;5113825;28;20207;-85
2022/11/02 01:10:09;;;;;;;15.80;14.20;;;11.90;99.90;;;;;;5113397;28;20231;-85
2022/11/02 01:12:37;;;;;;;14.32;12.98;;;11.90;99.90;;;;;;5113375;28;20204;-86
2022/11/02 01:15:09;;;;;;;16.65;14.85;;;11.90;99.90;;;;;;5113978;28;20220;-84
2022/11/02 01:17:37;;;;;;;14.38;13.05;;;11.90;99.90;;;;;;5113525;28;20210;-84
2022/11/02 01:20:08;;;;;;;14.98;13.52;;;11.90;99.90;;;;;;5113183;28;20223;-85
2022/11/02 01:22:36;;;;;;;15.63;14.02;;;11.90;99.90;;;;;;5113788;28;20204;-85
2022/11/02 01:25:05;;;;;;;16.35;14.57;;;11.90;99.90;;;;;;5113637;28;20214;-85
2022/11/02 01:27:33;;;;;;;23.60;15.27;;;11.80;99.90;;;;;;5112747;28;20203;-85
2022/11/02 01:30:02;;;;;;;15.07;13.50;;;11.80;99.90;;;;;;5113632;28;20235;-85
2022/11/02 01:32:30;;;;;;;19.63;15.93;;;11.80;99.90;;;;;;5113526;28;20203;-85
2022/11/02 01:34:58;;;;;;;17.92;15.57;;;11.80;99.90;;;;;;5113704;28;20223;-85
2022/11/02 01:37:28;;;;;;;19.75;16.42;;;11.80;99.90;;;;;;5113618;28;20207;-84
2022/11/02 01:39:56;;;;;;;16.50;14.77;;;11.80;99.90;;;;;;5113008;28;20215;-85
2022/11/02 01:42:26;;;;;;;16.00;14.45;;;11.80;99.90;;;;;;5113996;28;20237;-86
2022/11/02 01:44:54;;;;;;;15.90;14.35;;;11.90;99.90;;;;;;5113562;28;20206;-86
2022/11/02 01:47:25;;;;;;;18.80;15.00;;;11.80;99.90;;;;;;5113230;28;20203;-86
2022/11/02 01:50:06;;;;;;;14.57;13.05;;;11.90;99.90;;;;;;5112727;28;20203;-85
2022/11/02 01:52:38;;;;;;;15.45;13.95;;;11.90;99.90;;;;;;5113595;28;20215;-86
2022/11/02 01:55:12;;;;;;;15.32;13.73;;;11.90;99.90;;;;;;5113241;28;20224;-86
2022/11/02 01:57:43;;;;;;;17.23;15.05;;;11.90;99.90;;;;;;5113520;28;20206;-86
2022/11/02 02:00:14;;;;;;;16.15;14.50;;;11.90;99.90;;;;;;5112628;28;20223;-86
2022/11/02 02:02:47;;;;;;;15.18;13.60;;;11.90;99.90;;;;;;5113355;28;20203;-86
2022/11/02 02:05:17;;;;;;;12.95;11.68;;;11.90;99.90;;;;;;5113488;28;20204;-86
2022/11/02 02:07:48;;;;;;;17.55;15.43;;;11.90;99.90;;;;;;5113218;28;20211;-86
2022/11/02 02:10:17;;;;;;;15.07;13.55;;;11.90;99.90;;;;;;5112455;28;20227;-86
2022/11/02 02:12:46;;;;;;;14.93;13.32;;;11.90;99.90;;;;;;5113129;28;20206;-86
2022/11/02 02:15:15;;;;;;;15.55;13.95;;;11.80;99.90;;;;;;5112682;28;20231;-86
2022/11/02 02:17:49;;;;;;;14.48;12.98;;;11.80;99.90;;;;;;5113215;28;20200;-86
2022/11/02 02:20:36;;;;;;;14.23;12.30;;;11.80;99.90;;;;;;5112840;28;20224;-86
2022/11/02 02:23:43;;;;;;;15.27;13.85;;;11.80;99.90;;;;;;5113165;28;20203;-86
2022/11/02 02:26:41;;;;;;;14.15;12.55;;;11.80;99.90;;;;;;5089757;28;20234;-86
2022/11/02 02:29:16;;;;;;;13.02;11.73;;;11.80;99.90;;;;;;5112548;28;20203;-86
2022/11/02 02:31:49;;;;;;;16.00;13.75;;;11.80;99.90;;;;;;5112857;28;20231;-86
2022/11/02 02:34:20;;;;;;;14.45;12.88;;;11.80;99.90;;;;;;5112862;28;20227;-86
2022/11/02 02:36:52;;;;;;;14.70;13.10;;;11.80;99.90;;;;;;5112942;28;20200;-86
2022/11/02 02:39:27;;;;;;;13.85;12.27;;;11.80;99.90;;;;;;5114604;28;20215;-86
2022/11/02 02:41:59;;;;;;;15.15;13.68;;;11.80;99.90;;;;;;5116743;28;20219;-86
2022/11/02 02:44:35;;;;;;;15.23;13.70;;;11.80;99.90;;;;;;5116743;28;20198;-86
2022/11/02 02:47:08;;;;;;;12.77;11.48;;;11.80;99.90;;;;;;5116855;28;20203;-86
2022/11/02 02:49:41;;;;;;;13.98;11.85;;;11.80;99.90;;;;;;5116156;28;20207;-86
2022/11/02 02:52:10;;;;;;;13.57;12.27;;;11.80;99.90;;;;;;5116274;28;20203;-86
2022/11/02 02:54:42;;;;;;;11.25;10.15;;;11.80;99.90;;;;;;5116565;28;20208;-86
2022/11/02 02:57:13;;;;;;;12.07;10.90;;;11.80;99.90;;;;;;5116952;28;20214;-86
2022/11/02 02:59:44;;;;;;;11.73;10.30;;;11.90;99.90;;;;;;5116408;28;20200;-86
2022/11/02 03:02:17;;;;;;;12.75;10.82;;;11.80;99.90;;;;;;5116553;28;20211;-86
2022/11/02 03:04:45;;;;;;;12.38;11.23;;;11.80;99.90;;;;;;5116468;28;20255;-86
2022/11/02 03:07:20;;;;;;;13.13;11.52;;;11.90;99.90;;;;;;5116059;28;20210;-86
2022/11/02 03:09:52;;;;;;;12.98;11.63;;;11.90;99.90;;;;;;5116110;28;20207;-86
2022/11/02 03:12:28;;;;;;;13.13;11.68;;;11.90;99.90;;;;;;5116834;28;20216;-86
2022/11/02 03:15:10;;;;;;;11.23;10.13;;;11.90;99.90;;;;;;5115985;28;20230;-86
2022/11/02 03:17:55;;;;;;;11.32;10.23;;;11.90;99.90;;;;;;5115907;28;20203;-85
2022/11/02 03:20:30;;;;;;;10.88;9.88;;;11.90;99.90;;;;;;5115302;28;20246;-86
2022/11/02 03:23:08;;;;;;;13.73;12.40;;;11.90;99.90;;;;;;5116417;28;20213;-86
2022/11/02 03:25:45;;;;;;;10.93;9.80;;;11.90;99.90;;;;;;5116478;28;20191;-87
2022/11/02 03:28:19;;;;;;;10.32;9.30;;;11.90;99.90;;;;;;5116170;28;20211;-86
2022/11/02 03:30:57;;;;;;;12.63;11.43;;;11.90;99.90;;;;;;5115629;28;20230;-87
2022/11/02 03:33:30;;;;;;;12.48;11.18;;;11.90;99.90;;;;;;5116115;28;20199;-86
2022/11/02 03:36:04;;;;;;;11.50;10.38;;;11.90;99.90;;;;;;5115567;28;20242;-85
2022/11/02 03:38:38;;;;;;;11.57;10.48;;;11.90;99.90;;;;;;5115409;28;20200;-86
2022/11/02 03:41:07;;;;;;;11.73;10.73;;;11.90;99.90;;;;;;5115563;28;20223;-86
2022/11/02 03:43:38;;;;;;;12.25;10.80;;;11.90;99.90;;;;;;5115653;28;20207;-86
2022/11/02 03:46:10;;;;;;;11.20;10.15;;;12.00;99.90;;;;;;5115813;28;20207;-87
2022/11/02 03:48:43;;;;;;;13.10;10.82;;;11.90;99.90;;;;;;5114919;28;20206;-86
2022/11/02 03:51:14;;;;;;;11.68;10.50;;;12.00;99.90;;;;;;5114153;28;20226;-86
2022/11/02 03:53:48;;;;;;;16.15;11.75;;;12.00;99.90;;;;;;5115722;28;20200;-86
2022/11/02 03:56:23;;;;;;;11.38;10.32;;;11.90;99.90;;;;;;5115078;28;20225;-86
2022/11/02 03:58:51;;;;;;;11.95;10.80;;;11.90;99.90;;;;;;5115340;28;20195;-86
2022/11/02 04:01:21;;;;;;;11.15;10.00;;;12.00;99.90;;;;;;5114883;28;20253;-86
2022/11/02 04:03:50;;;;;;;11.10;10.02;;;12.00;99.90;;;;;;5115262;28;20207;-86
2022/11/02 04:06:18;;;;;;;14.40;11.70;;;12.00;99.90;;;;;;5115399;28;20244;-87
2022/11/02 04:08:48;;;;;;;12.32;10.32;;;12.00;99.90;;;;;;5114679;28;20207;-86
2022/11/02 04:19:26;;;;;;;20.25;11.05;;;12.00;99.90;;;;;;5114771;28;20230;-86
2022/11/02 04:19:36;;;;;;;11.10;10.10;;;12.00;99.90;;;;;;5114663;28;20212;-86
2022/11/02 04:27:35;;;;;;;11.18;10.18;;;12.00;99.90;;;;;;5115019;28;20215;-86
2022/11/02 04:30:04;;;;;;;15.52;11.77;;;12.10;99.90;;;;;;5114299;28;20227;-86
2022/11/02 04:35:25;;;;;;;12.57;11.30;;;12.00;99.90;;;;;;5114709;28;20224;-86
2022/11/02 04:40:39;;;;;;;12.48;10.80;;;12.10;99.90;;;;;;5114143;28;20223;-86
2022/11/02 04:43:07;;;;;;;11.52;10.52;;;12.00;99.90;;;;;;5114689;28;20212;-86
2022/11/02 04:45:35;;;;;;;12.65;11.45;;;12.10;99.90;;;;;;5114628;28;20204;-86
2022/11/02 04:48:07;;;;;;;10.23;9.32;;;12.00;99.90;;;;;;5114318;28;20208;-86
2022/11/02 04:50:36;;;;;;;15.00;11.13;;;12.00;99.90;;;;;;5113430;28;20235;-86
2022/11/02 04:53:07;;;;;;;11.10;10.05;;;12.10;99.90;;;;;;5114218;28;20284;-86
2022/11/02 04:55:35;;;;;;;10.50;9.55;;;12.00;99.90;;;;;;5114039;28;20227;-86
2022/11/02 04:58:03;;;;;;;13.43;11.07;;;12.00;99.90;;;;;;5114656;28;20208;-86
2022/11/02 05:00:32;;;;;;;13.25;10.82;;;12.00;99.90;;;;;;5113456;28;20223;-86
2022/11/02 05:03:00;;;;;;;11.63;10.50;;;12.00;99.90;;;;;;5113772;28;20207;-86
2022/11/02 05:05:30;;;;;;;14.15;10.90;;;12.00;99.90;;;;;;5114082;28;20196;-87
2022/11/02 05:07:58;;;;;;;12.32;10.93;;;12.00;99.90;;;;;;5114108;28;20200;-87
2022/11/02 05:10:26;;;;;;;11.77;10.68;;;12.00;99.90;;;;;;5113550;28;20259;-87
2022/11/02 05:12:57;;;;;;;11.57;10.40;;;12.00;99.90;;;;;;5113962;28;20215;-87
2022/11/02 05:15:25;;;;;;;11.77;10.57;;;12.00;99.90;;;;;;5113772;28;20227;-87
2022/11/02 05:17:54;;;;;;;11.88;10.68;;;12.00;99.90;;;;;;5113690;28;20208;-87
2022/11/02 05:20:22;;;;;;;16.77;11.85;;;12.00;99.90;;;;;;5113406;28;20219;-87
2022/11/02 05:22:52;;;;;;;11.70;10.60;;;12.00;99.90;;;;;;5113966;28;20222;-87
2022/11/02 05:25:20;;;;;;;11.10;10.05;;;12.00;99.90;;;;;;5113702;28;20211;-87
2022/11/02 05:27:48;;;;;;;19.27;11.23;;;12.00;99.90;;;;;;5113687;28;20203;-87
2022/11/02 05:30:17;;;;;;;11.52;10.43;;;12.00;99.90;;;;;;5112848;28;20262;-87
2022/11/02 05:32:45;;;;;;;19.73;11.00;;;12.00;99.90;;;;;;5113634;28;20204;-87
2022/11/02 05:35:13;;;;;;;12.80;11.48;;;12.00;99.90;;;;;;5113427;28;20204;-85
2022/11/02 05:37:41;;;;;;;12.32;11.13;;;12.00;99.90;;;;;;5113511;28;20210;-86
2022/11/02 05:40:13;;;;;;;12.02;10.82;;;12.00;99.90;;;;;;5113140;28;20220;-86
2022/11/02 05:42:41;;;;;;;11.60;10.60;;;12.00;99.90;;;;;;5113230;28;20195;-86
2022/11/02 05:45:10;;;;;;;12.02;10.93;;;12.00;99.90;;;;;;5113424;28;20214;-87
2022/11/02 05:47:38;;;;;;;12.65;11.38;;;12.00;99.90;;;;;;5113470;28;20196;-86
2022/11/02 05:50:07;;;;;;;12.23;11.02;;;12.00;99.90;;;;;;5113028;28;20223;-86
2022/11/02 05:52:35;;;;;;;14.43;12.63;;;12.00;99.90;;;;;;5113011;28;20203;-86
2022/11/02 05:55:04;;;;;;;13.93;11.57;;;12.00;99.90;;;;;;5113038;28;20199;-86
2022/11/02 05:57:35;;;;;;;14.32;12.00;;;12.00;99.90;;;;;;5112926;28;20216;-86
2022/11/02 06:00:03;;;;;;;12.63;11.32;;;12.00;99.90;;;;;;5112843;28;20219;-86
2022/11/02 06:02:34;;;;;;;12.02;10.93;;;12.00;99.90;;;;;;5113604;28;20204;-86
2022/11/02 06:05:02;;;;;;;16.20;12.60;;;11.90;99.90;;;;;;5112970;28;20207;-86
2022/11/02 06:07:30;;;;;;;13.57;11.25;;;11.90;99.90;;;;;;5112869;28;20199;-86
2022/11/02 06:09:58;;;;;;;19.70;12.07;;;11.90;99.90;;;;;;5112632;28;20223;-86
2022/11/02 06:12:27;;;;;;;12.60;11.00;;;11.90;99.90;;;;;;5113188;28;20207;-86
2022/11/02 06:14:57;;;;;;;12.18;11.00;;;11.80;99.90;;;;;;5116503;28;20214;-86
2022/11/02 06:17:25;;;;;;;14.23;11.95;;;11.80;99.90;;;;;;5117082;28;20219;-86
2022/11/02 06:19:53;;;;;;;11.32;10.13;;;11.80;99.90;;;;;;5116780;28;20203;-86
2022/11/02 06:22:21;;;;;;;12.93;11.57;;;11.70;99.90;;;;;;5116894;28;20203;-86
2022/11/02 06:24:49;;;;;;;12.57;11.43;;;11.70;99.90;;;;;;5117295;28;20207;-86
2022/11/02 06:27:18;;;;;;;13.00;11.77;;;11.70;99.90;;;;;;5117358;28;20202;-86
2022/11/02 06:29:46;;;;;;;14.13;12.65;;;11.70;99.90;;;;;;5116586;28;20206;-86
2022/11/02 06:32:16;;;;;;;14.02;12.55;;;11.70;99.90;;;;;;5117429;28;20226;-86
2022/11/02 06:34:44;;;;;;;18.15;12.23;;;11.70;99.90;;;;;;5117128;28;20199;-86
2022/11/02 06:37:12;;;;;;;15.82;13.02;;;11.70;99.90;;;;;;5116991;28;20234;-86
2022/11/02 06:39:40;;;;;;;18.90;12.85;;;11.80;99.90;;;;;;5116456;28;20202;-86
2022/11/02 06:42:09;;;;;;;12.70;11.52;;;11.80;99.90;;;;;;5117464;28;20210;-86
2022/11/02 06:44:37;;;;;;;15.73;14.00;;;11.80;99.90;;;;;;5117115;28;20219;-86
2022/11/02 06:47:06;;;;;;;13.82;12.32;;;11.80;99.90;;;;;;5116748;28;20202;-86
2022/11/02 06:49:36;;;;;;;13.85;12.48;;;11.80;99.90;;;;;;5116379;28;20208;-86
2022/11/02 06:52:04;;;;;;;13.38;12.07;;;11.80;99.90;;;;;;5116370;28;20235;-86
2022/11/02 06:54:33;;;;;;;20.23;14.18;;;11.80;99.90;;;;;;5116694;28;20200;-86
2022/11/02 06:57:01;;;;;;;14.23;12.00;;;11.80;99.90;;;;;;5116564;28;20219;-86
2022/11/02 06:59:29;;;;;;;14.52;13.10;;;11.90;99.90;;;;;;5116157;28;20211;-86
2022/11/02 07:01:57;;;;;;;15.15;13.27;;;11.90;99.90;;;;;;5116179;28;20234;-86
2022/11/02 07:04:26;;;;;;;13.68;11.85;;;11.90;99.90;;;;;;5116520;28;20203;-86
2022/11/02 07:06:56;;;;;;;15.15;13.23;;;11.90;99.90;;;;;;5116304;28;20196;-86
2022/11/02 07:09:24;;;;;;;15.02;13.23;;;11.90;99.90;;;;;;5116343;28;20212;-86
2022/11/02 07:11:52;;;;;;;16.90;12.80;;;11.90;99.90;;;;;;5116212;28;20219;-86
2022/11/02 07:14:21;;;;;;;14.18;12.88;;;12.00;99.90;;;;;;5116189;28;20204;-86
2022/11/02 07:16:49;;;;;;;14.45;12.95;;;12.00;99.90;;;;;;5116177;28;20211;-86
2022/11/02 07:19:18;;;;;;;14.15;12.57;;;12.00;99.90;;;;;;5115503;28;20211;-86
2022/11/02 07:21:46;;;;;;;13.85;12.13;;;12.00;99.90;;;;;;5116149;28;20228;-86
2022/11/02 07:24:16;;;;;;;16.45;12.57;;;12.10;99.90;;;;;;5115811;28;20204;-87
2022/11/02 07:26:47;;;;;;;14.88;13.38;;;12.10;99.90;;;;;;5115948;28;20194;-86
2022/11/02 07:29:16;;;;;;;20.25;11.32;;;12.10;99.90;;;;;;5115565;28;20211;-86
2022/11/02 07:31:44;;;;;;;13.40;12.25;;;12.20;99.90;;;;;;5115847;28;20232;-87
2022/11/02 07:34:12;;;;;;;20.67;12.45;;;12.30;99.90;;;;;;5115871;28;20203;-86
2022/11/02 07:36:44;;;;;;;13.90;11.43;;;12.40;99.90;;;;;;5115644;28;20216;-87
2022/11/02 07:39:13;;;;;;;10.32;9.32;;;12.80;99.90;;;;;;5115465;28;20199;-87
2022/11/02 07:41:43;;;;;;;11.77;9.18;;;13.10;99.90;;;;;;5115820;28;20231;-87
2022/11/02 07:44:18;;;;;;;11.57;8.50;;;13.60;99.90;;;;;;5115532;28;20203;-87
2022/11/02 07:46:47;;;;;;;13.70;8.95;;;13.90;99.90;;;;;;5115612;28;20210;-88
2022/11/02 07:49:15;;;;;;;8.85;7.55;;;14.30;99.90;;;;;;5114955;28;20203;-88
2022/11/02 07:51:48;;;;;;;7.90;6.95;;;14.50;99.90;;;;;;5115063;28;20231;-88
2022/11/02 07:54:16;;;;;;;11.52;7.05;;;14.60;99.90;;;;;;5115524;28;20207;-88
2022/11/02 07:56:46;;;;;;;8.70;7.30;;;14.80;99.90;;;;;;5115419;28;20226;-88
2022/11/02 07:59:15;;;;;;;7.75;7.05;;;15.00;99.90;;;;;;5115317;28;20210;-87
2022/11/02 08:01:43;;;;;;;7.88;6.53;;;15.10;99.90;;;;;;5115403;28;20219;-87
2022/11/02 08:04:11;;;;;;;9.23;8.00;;;15.20;99.90;;;;;;5115492;28;20264;-87
2022/11/02 08:06:39;;;;;;;7.70;6.88;;;15.40;99.90;;;;;;5115209;28;20285;-88
2022/11/02 08:09:08;;;;;;;8.32;7.50;;;15.60;99.90;;;;;;5114783;28;20210;-88
2022/11/02 08:11:36;;;;;;;7.35;6.65;;;15.70;99.90;;;;;;5115102;28;20227;-87
2022/11/02 08:14:06;;;;;;;7.65;6.93;;;15.70;99.90;;;;;;5115263;28;20222;-88
2022/11/02 08:16:34;;;;;;;12.05;7.15;;;15.80;99.90;;;;;;5115300;28;20203;-88
2022/11/02 08:19:02;;;;;;;7.75;6.50;;;15.80;99.90;;;;;;5114341;28;20223;-88
2022/11/02 08:21:31;;;;;;;6.85;6.13;;;15.80;99.90;;;;;;5115000;28;20219;-88
2022/11/02 08:23:59;;;;;;;7.97;7.03;;;15.90;99.90;;;;;;5114650;28;20318;-87
2022/11/02 08:26:27;;;;;;;7.00;6.30;;;16.00;99.90;;;;;;5115315;28;20200;-88
2022/11/02 08:28:55;;;;;;;8.05;6.07;;;16.00;99.90;;;;;;5115060;28;20200;-88
2022/11/02 08:31:25;;;;;;;13.68;6.10;;;16.10;99.90;;;;;;5115091;28;20249;-88
2022/11/02 08:33:53;;;;;;;6.07;5.47;;;16.10;99.90;;;;;;5114665;28;20214;-88
2022/11/02 08:36:22;;;;;;;11.55;6.68;;;16.20;99.90;;;;;;5114180;28;20208;-88
2022/11/02 08:38:50;;;;;;;7.28;5.97;;;16.30;99.90;;;;;;5113921;28;20220;-87
2022/11/02 08:41:18;;;;;;;4.88;4.32;;;16.50;99.90;;;;;;5114358;28;20223;-88
2022/11/02 08:43:47;;;;;;;8.55;5.05;;;16.50;99.90;;;;;;5114492;28;20214;-87
2022/11/02 08:46:15;;;;;;;6.53;5.03;;;16.60;99.90;;;;;;5114432;28;20229;-87
2022/11/02 08:48:46;;;;;;;6.65;4.53;;;16.70;99.90;;;;;;5113918;28;20204;-88
2022/11/02 08:51:15;;;;;;;5.03;4.20;;;16.80;99.90;;;;;;5113978;28;20224;-88
2022/11/02 08:53:43;;;;;;;4.35;3.95;;;16.90;99.90;;;;;;5114251;28;20237;-88
2022/11/02 08:56:18;;;;;;;7.20;3.85;;;16.90;99.90;;;;;;5114339;28;20199;-88
2022/11/02 08:58:47;;;;;;;6.05;3.17;;;17.10;99.90;;;;;;5113393;28;20242;-88
2022/11/02 09:01:15;;;;;;;4.35;3.22;;;17.30;99.90;;;;;;5114167;28;20224;-87
2022/11/02 09:03:45;;;;;;;3.63;2.65;;;17.30;99.90;;;;;;5114589;28;20264;-87
2022/11/02 09:06:13;;;;;;;7.20;2.38;;;17.40;99.90;;;;;;5114129;28;20204;-87
2022/11/02 09:08:41;;;;;;;3.15;2.60;;;17.50;99.90;;;;;;5113616;28;20290;-87
2022/11/02 09:11:10;;;;;;;4.45;3.20;;;17.50;99.90;;;;;;5113999;28;20231;-87
2022/11/02 09:13:38;;;;;;;3.55;2.42;;;17.60;99.90;;;;;;5114384;28;20200;-88
2022/11/02 09:16:07;;;;;;;2.80;2.45;;;17.60;99.90;;;;;;5113857;28;20207;-88
2022/11/02 09:18:36;;;;;;;4.28;3.03;;;17.70;99.90;;;;;;5113325;28;20215;-88
2022/11/02 09:21:07;;;;;;;2.42;2.22;;;17.80;99.90;;;;;;5113553;28;20231;-88
2022/11/02 09:23:35;;;;;;;3.88;3.08;;;17.80;99.90;;;;;;5113502;28;20208;-88
2022/11/02 09:26:03;;;;;;;2.85;2.40;;;18.00;99.90;;;;;;5113736;28;20200;-88
2022/11/02 09:28:31;;;;;;;2.47;2.28;;;18.00;99.90;;;;;;5113457;28;20237;-87
2022/11/02 09:30:59;;;;;;;3.67;2.50;;;18.10;99.90;;;;;;5113500;28;20235;-88
2022/11/02 09:33:28;;;;;;;5.05;3.45;;;18.10;99.90;;;;;;5113724;28;20199;-88
2022/11/02 09:36:01;;;;;;;2.70;2.50;;;18.20;99.90;;;;;;5113794;28;20283;-86
2022/11/02 09:38:31;;;;;;;4.95;3.28;;;18.20;99.90;;;;;;5113197;28;20231;-87
2022/11/02 09:41:08;;;;;;;2.60;2.40;;;18.30;99.90;;;;;;5113498;28;20235;-86
2022/11/02 09:43:44;;;;;;;4.38;2.25;;;18.40;99.90;;;;;;5113360;28;20210;-86
2022/11/02 09:46:19;;;;;;;3.28;2.60;;;18.40;99.90;;;;;;5113355;28;20211;-87
2022/11/02 09:48:50;;;;;;;2.97;2.40;;;18.40;99.90;;;;;;5112199;28;20202;-87
2022/11/02 09:51:22;;;;;;;4.43;2.83;;;18.50;99.90;;;;;;5112948;28;20235;-87
2022/11/02 09:53:59;;;;;;;10.60;2.17;;;18.60;99.90;;;;;;5113232;28;20214;-86
2022/11/02 09:56:29;;;;;;;2.72;2.00;;;18.50;99.90;;;;;;5113548;28;20192;-87
2022/11/02 09:59:00;;;;;;;3.78;2.90;;;18.60;99.90;;;;;;5112638;28;20219;-87
2022/11/02 10:01:39;;;;;;;3.03;2.40;;;18.70;99.90;;;;;;5113423;28;20233;-86
2022/11/02 10:04:37;;;;;;;6.47;2.55;;;18.90;99.90;;;;;;5113390;28;20199;-86
2022/11/02 10:07:13;;;;;;;5.93;2.40;;;19.20;99.90;;;;;;5113372;28;20215;-87
2022/11/02 10:09:52;;;;;;;11.15;2.40;;;19.50;99.90;;;;;;5112786;28;20203;-86
2022/11/02 10:12:28;;;;;;;4.10;2.00;;;19.60;99.90;;;;;;5113191;28;20195;-86
2022/11/02 10:15:03;;;;;;;3.40;2.45;;;19.80;99.90;;;;;;5113090;28;20211;-86
2022/11/02 10:17:36;;;;;;;2.30;2.10;;;20.00;99.90;;;;;;5113061;28;20205;-87
2022/11/02 10:20:16;;;;;;;1.85;1.75;;;20.10;99.90;;;;;;5112143;28;20238;-87
2022/11/02 10:22:47;;;;;;;2.65;2.28;;;20.10;99.90;;;;;;5112993;28;20203;-86
2022/11/02 10:25:17;;;;;;;8.40;2.88;;;19.90;99.90;;;;;;5112942;28;20203;-87
2022/11/02 10:27:50;;;;;;;2.65;1.70;;;19.70;99.90;;;;;;5113079;28;20222;-87
2022/11/02 10:30:20;;;;;;;2.60;2.40;;;19.80;99.90;;;;;;5112220;28;20224;-87
2022/11/02 10:32:52;;;;;;;2.42;2.05;;;20.20;99.90;;;;;;5113335;28;20200;-87
2022/11/02 10:35:27;;;;;;;4.82;2.55;;;20.20;99.90;;;;;;5113419;28;20207;-87
2022/11/02 10:38:27;;;;;;;8.98;2.42;;;20.30;99.90;;;;;;5112681;28;20219;-87
2022/11/02 10:41:28;;;;;;;2.40;2.20;;;20.30;99.90;;;;;;5112714;28;20234;-87
2022/11/02 10:44:12;;;;;;;2.22;2.03;;;20.20;99.90;;;;;;5102825;28;20247;-87
2022/11/02 10:46:54;;;;;;;2.58;2.38;;;20.10;99.90;;;;;;5113074;28;20200;-87
2022/11/02 10:49:58;;;;;;;2.53;2.08;;;20.40;99.90;;;;;;5112345;28;20203;-86
2022/11/02 10:52:31;;;;;;;3.50;2.63;;;20.40;99.90;;;;;;5112458;28;20277;-87
2022/11/02 10:54:59;;;;;;;2.55;2.30;;;20.70;99.90;;;;;;5112693;28;20203;-88
2022/11/02 10:57:30;;;;;;;1.90;1.80;;;21.20;99.90;;;;;;5112745;28;20211;-88
2022/11/02 11:00:28;;;;;;;3.25;2.08;;;21.50;99.90;;;;;;5113469;28;20227;-88
2022/11/02 11:03:08;;;;;;;3.17;2.15;;;21.30;99.90;;;;;;5116485;28;20223;-87
2022/11/02 11:05:43;;;;;;;2.30;1.98;;;21.10;99.90;;;;;;5116274;28;20200;-86
2022/11/02 11:08:29;;;;;;;3.35;2.00;;;21.30;99.90;;;;;;5116570;28;20207;-87
2022/11/02 11:11:10;;;;;;;2.00;1.85;;;21.50;99.90;;;;;;5116384;28;20234;-87
2022/11/02 11:13:41;;;;;;;3.83;2.40;;;21.40;99.90;;;;;;5116672;28;20203;-87
2022/11/02 11:16:39;;;;;;;2.65;2.45;;;21.50;99.90;;;;;;5115980;28;20199;-87
2022/11/02 11:19:22;;;;;;;1.92;1.83;;;21.10;99.90;;;;;;5115520;28;20230;-87
2022/11/02 11:22:25;;;;;;;2.40;1.80;;;21.10;99.90;;;;;;5116164;28;20251;-87
2022/11/02 11:25:14;;;;;;;2.65;2.00;;;20.90;99.90;;;;;;5115754;28;20215;-87
2022/11/02 11:27:45;;;;;;;3.38;1.85;;;20.70;99.90;;;;;;5116175;28;20206;-86
2022/11/02 11:30:25;;;;;;;2.08;1.85;;;21.00;99.90;;;;;;5115483;28;20229;-87
2022/11/02 11:33:19;;;;;;;2.55;2.15;;;21.00;99.90;;;;;;5115556;28;20208;-87
2022/11/02 11:35:50;;;;;;;3.42;2.30;;;21.10;99.90;;;;;;5115727;28;20200;-87
2022/11/02 11:38:21;;;;;;;3.03;2.33;;;21.40;99.90;;;;;;5115746;28;20199;-87
2022/11/02 11:40:53;;;;;;;1.95;1.73;;;21.50;99.90;;;;;;5115711;28;20232;-87
2022/11/02 11:43:24;;;;;;;9.88;2.75;;;21.40;99.90;;;;;;5115761;28;20212;-87
2022/11/02 11:46:00;;;;;;;1.70;1.60;;;21.20;99.90;;;;;;5115674;28;20206;-86
2022/11/02 11:48:37;;;;;;;3.25;2.13;;;21.00;99.90;;;;;;5115027;28;20204;-86
2022/11/02 11:51:25;;;;;;;3.33;1.80;;;20.90;99.90;;;;;;5115118;28;20230;-86
2022/11/02 11:54:21;;;;;;;2.00;1.73;;;20.80;99.90;;;;;;5115626;28;20256;-87
2022/11/02 11:56:50;;;;;;;1.67;1.58;;;20.90;99.90;;;;;;5115638;28;20211;-87
2022/11/02 11:59:28;;;;;;;1.67;1.58;;;20.90;99.90;;;;;;5114690;28;20215;-87
2022/11/02 12:01:59;;;;;;;2.35;2.15;;;20.90;99.90;;;;;;5115340;28;20237;-87
2022/11/02 12:04:33;;;;;;;1.77;1.67;;;21.00;99.90;;;;;;5115290;28;20289;-87
2022/11/02 12:07:23;;;;;;;2.30;1.63;;;21.10;99.90;;;;;;5115448;28;20210;-87
2022/11/02 12:10:03;;;;;;;2.58;2.13;;;21.20;99.90;;;;;;5114715;28;20199;-86
2022/11/02 12:12:43;;;;;;;5.22;2.40;;;21.00;99.90;;;;;;5114194;28;20207;-87
2022/11/02 12:15:26;;;;;;;1.48;1.38;;;21.10;99.90;;;;;;5114944;28;20215;-87
2022/11/02 12:18:12;;;;;;;1.58;1.48;;;21.20;99.90;;;;;;5115458;28;20207;-86
2022/11/02 12:20:59;;;;;;;2.08;1.88;;;21.10;99.90;;;;;;5114418;28;20230;-87
2022/11/02 12:23:46;;;;;;;1.75;1.63;;;21.20;99.90;;;;;;5115220;28;20203;-86
2022/11/02 12:26:28;;;;;;;5.07;2.25;;;21.40;99.90;;;;;;5115042;28;20282;-86
2022/11/02 12:29:06;;;;;;;2.17;1.67;;;21.40;99.90;;;;;;5114507;28;20214;-86
2022/11/02 12:31:38;;;;;;;1.80;1.70;;;21.40;99.90;;;;;;5114635;28;20233;-86
2022/11/02 12:34:44;;;;;;;1.75;1.63;;;21.40;99.90;;;;;;5114874;28;20208;-87
2022/11/02 12:37:29;;;;;;;2.40;2.20;;;21.40;99.90;;;;;;5114665;28;20208;-87
2022/11/02 12:40:23;;;;;;;1.83;1.65;;;21.40;99.90;;;;;;5113946;28;20239;-87
2022/11/02 12:42:58;;;;;;;2.20;1.52;;;21.20;99.90;;;;;;5114319;28;20259;-87
2022/11/02 12:45:36;;;;;;;3.17;1.92;;;21.20;99.90;;;;;;5114781;28;20206;-86
2022/11/02 12:48:05;;;;;;;1.80;1.60;;;21.00;99.90;;;;;;5114528;28;20237;-86
2022/11/02 12:50:53;;;;;;;1.90;1.80;;;21.00;99.90;;;;;;5113409;28;20247;-87
2022/11/02 12:53:39;;;;;;;2.15;1.80;;;20.90;99.90;;;;;;5114088;28;20206;-86
2022/11/02 12:56:14;;;;;;;1.85;1.70;;;20.60;99.90;;;;;;5114031;28;20199;-86
2022/11/02 12:58:43;;;;;;;3.65;2.05;;;20.50;99.90;;;;;;5113687;28;20213;-88
2022/11/02 13:01:17;;;;;;;2.00;1.45;;;20.40;99.90;;;;;;5114146;28;20239;-86
2022/11/02 13:03:52;;;;;;;1.60;1.50;;;20.20;99.90;;;;;;5116326;28;20203;-85
2022/11/02 13:06:27;;;;;;;2.30;1.80;;;20.00;99.90;;;;;;5116140;28;20207;-86
2022/11/02 13:08:58;;;;;;;2.03;1.60;;;20.10;99.90;;;;;;5115327;28;20262;-88
2022/11/02 13:11:34;;;;;;;2.40;2.20;;;20.40;99.90;;;;;;5114668;28;20222;-86
2022/11/02 13:14:06;;;;;;;1.55;1.45;;;20.40;99.90;;;;;;5114487;28;20259;-86
2022/11/02 13:16:46;;;;;;;1.60;1.50;;;20.50;99.60;;;;;;5114220;28;20202;-87
2022/11/02 13:19:19;;;;;;;2.40;2.20;;;20.50;99.40;;;;;;5113994;28;20206;-86